Big Delta, AK

8:18 AM AKDT on April 25, 2017 (GMT -0800)
Allen Army Air Field | | Change Station

Elev 1276 ft 63.99 °N, 145.72 °W | Updated 25 minutes ago

Partly Cloudy
Partly Cloudy
49 °F
Feels Like 49 °F
N
9
Wind Variable Wind from SSE

Today
High -- | Low -- °F
--% Chance of Precip.
Yesterday
High -- | Low -- °F
Precip. -- in
Pressure 29.53 in
Visibility 10.0 miles
Clouds Few 7000 ft
Scattered Clouds 11000 ft
Dew Point 29 °F
Humidity 46%
Rainfall 0.00 in
Snow Depth Not available.
5:35 AM 9:48 PM
Waning Crescent, 1% visible
METAR PABI 251553Z 16008KT 10SM FEW070 SCT110 09/M02 A2951 RMK AO2 SLP998 T00941017
Pressure 29.53 in
Visibility 10.0 miles
Clouds Few 7000 ft
Scattered Clouds 11000 ft
Dew Point 29 °F
Humidity 46%
Rainfall 0.00 in
Snow Depth Not available.
5:35 AM 9:48 PM
Waning Crescent, 1% visible
METAR PABI 251553Z 16008KT 10SM FEW070 SCT110 09/M02 A2951 RMK AO2 SLP998 T00941017

Get Severe Weather Alerts

Thanks for signing up!

Be on the lookout for a verification email in your inbox.

You'll start receiving the daily forecast at 8 AM.

×

10-Day Weather Forecast

Almanac

Astronomy

Apr. 25, 2017 Rise Set
Actual Time
Civil Twilight
Nautical Twilight
Astronomical Twilight
Moon
Length of Visible Light
Length of Day
Tomorrow will be .
, % of the Moon is Illuminated

Today's Extremes

State Highs State Lows

Community

WunderPhotos

WunderBlog® & News

Nearby

Air Quality

  Air Quality AQ Index Pollutant
Not available.

Snow Depth

Station Depth Elevation

Earthquake Activity

City Distance Mag. Time & Date
Minimum magnitude displayed is 2.5.

Coastal Water Temperatures

Place Temperature

Stations

Nearby Weather Stations

Station Location Temp. Windchill Dew Point Humidity Wind Precip. Elev Updated Type
                   

Watches & Warnings

There are currently no watches in effect.